createdAt,value
2022-12-27T00:01:23.520Z,0.70
2022-12-27T00:03:50.687Z,2.53
2022-12-27T00:06:18.846Z,2.13
2022-12-27T00:08:46.046Z,1.27
2022-12-27T00:11:14.250Z,1.37
2022-12-27T00:13:41.403Z,1.13
2022-12-27T00:16:10.095Z,2.30
2022-12-27T00:18:37.396Z,3.30
2022-12-27T00:21:04.620Z,1.10
2022-12-27T00:23:32.587Z,1.07
2022-12-27T00:26:06.442Z,1.60
2022-12-27T00:28:33.813Z,1.00
2022-12-27T00:31:00.908Z,3.47
2022-12-27T00:33:28.572Z,1.10
2022-12-27T00:35:55.844Z,2.23
2022-12-27T00:38:22.906Z,1.17
2022-12-27T00:40:50.188Z,1.50
2022-12-27T00:43:17.407Z,1.10
2022-12-27T00:45:44.651Z,2.63
2022-12-27T00:48:11.855Z,1.07
2022-12-27T00:50:42.636Z,1.30
2022-12-27T00:53:09.707Z,2.10
2022-12-27T00:55:36.911Z,1.37
2022-12-27T00:58:04.128Z,1.20
2022-12-27T01:00:31.192Z,1.40
2022-12-27T01:02:58.271Z,1.40
2022-12-27T01:05:25.666Z,2.93
2022-12-27T01:07:52.825Z,2.07
2022-12-27T01:10:19.878Z,2.07
2022-12-27T01:12:46.961Z,1.80
2022-12-27T01:15:14.222Z,0.90
2022-12-27T01:17:41.391Z,0.97
2022-12-27T01:20:08.837Z,2.20
2022-12-27T01:22:35.896Z,1.07
2022-12-27T01:25:02.980Z,3.33
2022-12-27T01:27:30.230Z,2.00
2022-12-27T01:29:57.320Z,1.47
2022-12-27T01:32:24.585Z,3.13
2022-12-27T01:34:52.139Z,2.00
2022-12-27T01:37:19.350Z,10.30
2022-12-27T01:39:46.407Z,1.33
2022-12-27T01:42:35.939Z,1.67
2022-12-27T01:45:04.059Z,3.27
2022-12-27T01:47:50.198Z,2.20
2022-12-27T01:50:17.361Z,2.20
2022-12-27T01:52:46.124Z,1.73
2022-12-27T01:55:19.937Z,1.40
2022-12-27T01:57:47.321Z,1.73
2022-12-27T02:00:14.651Z,2.97
2022-12-27T02:02:41.807Z,1.87
2022-12-27T02:05:09.261Z,4.50
2022-12-27T02:07:41.359Z,1.20
2022-12-27T02:10:08.664Z,2.57
2022-12-27T02:12:36.037Z,1.30
2022-12-27T02:15:04.569Z,1.43
2022-12-27T02:17:31.837Z,3.53
2022-12-27T02:20:11.320Z,0.80
2022-12-27T02:23:04.781Z,1.20
2022-12-27T02:25:50.841Z,3.13
2022-12-27T02:28:41.466Z,1.30
2022-12-27T02:31:20.060Z,1.50
2022-12-27T02:33:48.203Z,1.13
2022-12-27T02:36:23.791Z,2.20
2022-12-27T02:38:52.154Z,2.27
2022-12-27T02:41:38.470Z,1.00
2022-12-27T02:44:24.786Z,3.13
2022-12-27T02:47:10.841Z,2.43
2022-12-27T02:50:00.532Z,1.40
2022-12-27T02:53:08.031Z,1.30
2022-12-27T02:55:38.766Z,1.27
2022-12-27T02:58:14.161Z,1.37
2022-12-27T03:01:19.969Z,1.53
2022-12-27T03:04:07.332Z,2.30
2022-12-27T03:06:41.267Z,1.23
2022-12-27T03:09:42.377Z,1.83
2022-12-27T03:12:36.160Z,1.50
2022-12-27T03:15:23.054Z,2.80
2022-12-27T03:17:54.754Z,1.80
2022-12-27T03:20:40.290Z,3.67
2022-12-27T03:23:26.193Z,5.03
2022-12-27T03:25:53.322Z,2.20
2022-12-27T03:28:39.751Z,1.70
2022-12-27T03:31:27.121Z,1.37
2022-12-27T03:34:04.651Z,2.23
2022-12-27T03:36:50.839Z,2.03
2022-12-27T03:39:36.175Z,3.60
2022-12-27T03:42:26.665Z,1.83
2022-12-27T03:44:53.955Z,3.13
2022-12-27T03:47:27.766Z,0.97
2022-12-27T03:50:05.449Z,3.20
2022-12-27T03:52:39.975Z,1.23
2022-12-27T03:55:07.364Z,1.00
2022-12-27T03:57:34.592Z,1.53
2022-12-27T04:00:01.793Z,1.43
2022-12-27T04:02:29.713Z,1.10
2022-12-27T04:04:59.846Z,1.93
2022-12-27T04:07:26.941Z,1.33
2022-12-27T04:10:13.108Z,4.23
2022-12-27T04:12:58.953Z,1.00
2022-12-27T04:15:44.937Z,1.93
2022-12-27T04:18:30.805Z,1.20
2022-12-27T04:21:16.919Z,1.30
2022-12-27T04:24:02.946Z,1.87
2022-12-27T04:26:48.845Z,1.83
2022-12-27T04:29:34.709Z,1.00
2022-12-27T04:32:20.886Z,1.07
2022-12-27T04:34:48.012Z,4.10
2022-12-27T04:37:16.073Z,1.57
2022-12-27T04:40:03.632Z,0.83
2022-12-27T04:42:49.530Z,4.30
2022-12-27T04:45:35.358Z,1.20
2022-12-27T04:48:21.416Z,1.93
2022-12-27T04:51:07.526Z,2.07
2022-12-27T04:53:53.498Z,0.80
2022-12-27T04:56:20.659Z,5.70
2022-12-27T04:59:06.534Z,2.33
2022-12-27T05:01:52.515Z,5.10
2022-12-27T05:04:19.635Z,1.80
2022-12-27T05:06:46.740Z,1.00
2022-12-27T05:09:32.499Z,0.90
2022-12-27T05:12:18.174Z,1.63
2022-12-27T05:14:45.306Z,1.00
2022-12-27T05:17:12.506Z,3.77
2022-12-27T05:19:39.725Z,2.03
2022-12-27T05:22:25.558Z,1.80
2022-12-27T05:25:11.295Z,2.50
2022-12-27T05:27:38.442Z,4.20
2022-12-27T05:30:05.769Z,1.50
2022-12-27T05:32:32.869Z,1.10
2022-12-27T05:34:59.976Z,1.33
2022-12-27T05:37:27.088Z,1.53
2022-12-27T05:39:54.203Z,1.40
2022-12-27T05:42:21.408Z,1.63
2022-12-27T05:44:48.569Z,1.37
2022-12-27T05:47:15.731Z,1.60
2022-12-27T05:49:42.904Z,0.97
2022-12-27T05:52:10.054Z,1.33
2022-12-27T05:54:37.177Z,1.33
2022-12-27T05:57:04.334Z,2.30
2022-12-27T05:59:31.600Z,1.77
2022-12-27T06:01:58.903Z,3.33
2022-12-27T06:04:26.139Z,2.00
2022-12-27T06:06:53.306Z,1.93
2022-12-27T06:09:20.383Z,1.97
2022-12-27T06:11:47.564Z,4.57
2022-12-27T06:14:14.808Z,3.20
2022-12-27T06:16:42.072Z,2.67
2022-12-27T06:19:09.290Z,3.17
2022-12-27T06:21:36.519Z,3.60
2022-12-27T06:24:03.917Z,3.60
2022-12-27T06:26:31.261Z,2.97
2022-12-27T06:28:58.795Z,1.87
2022-12-27T06:31:26.061Z,2.50
2022-12-27T06:33:53.357Z,2.23
2022-12-27T06:36:21.325Z,2.33
2022-12-27T06:38:48.785Z,2.60
2022-12-27T06:41:17.543Z,2.30
2022-12-27T06:43:44.890Z,3.10
2022-12-27T06:46:17.324Z,3.40
2022-12-27T06:48:45.485Z,2.70
2022-12-27T06:51:13.181Z,4.70
2022-12-27T06:53:40.371Z,3.30
2022-12-27T06:56:12.523Z,2.50
2022-12-27T06:58:39.880Z,3.27
2022-12-27T07:01:14.434Z,3.17
2022-12-27T07:03:44.241Z,6.47
2022-12-27T07:06:11.825Z,4.40
2022-12-27T07:08:41.646Z,4.23
2022-12-27T07:11:09.636Z,4.57
2022-12-27T07:13:40.770Z,3.57
2022-12-27T07:16:08.725Z,4.50
2022-12-27T07:18:38.428Z,3.20
2022-12-27T07:21:27.255Z,3.20
2022-12-27T07:23:54.566Z,4.00
2022-12-27T07:26:22.642Z,3.50
2022-12-27T07:28:49.849Z,5.07
2022-12-27T07:31:20.266Z,4.10
2022-12-27T07:33:47.519Z,4.00
2022-12-27T07:36:15.527Z,6.47
2022-12-27T07:38:42.723Z,7.03
2022-12-27T07:41:10.510Z,4.87
2022-12-27T07:43:37.739Z,7.27
2022-12-27T07:46:15.137Z,7.03
2022-12-27T07:48:42.544Z,5.90
2022-12-27T07:51:11.049Z,5.53
2022-12-27T07:53:38.156Z,5.93
2022-12-27T07:56:20.143Z,6.00
2022-12-27T07:58:50.829Z,3.27
2022-12-27T08:01:18.829Z,7.27
2022-12-27T08:03:46.149Z,5.73
2022-12-27T08:06:23.213Z,4.67
2022-12-27T08:08:50.624Z,3.97
2022-12-27T08:11:17.969Z,3.20
2022-12-27T08:13:45.482Z,4.03
2022-12-27T08:16:17.245Z,4.37
2022-12-27T08:18:44.464Z,7.73
2022-12-27T08:21:11.894Z,4.60
2022-12-27T08:23:39.070Z,7.37
2022-12-27T08:26:06.561Z,4.67
2022-12-27T08:28:33.741Z,4.70
2022-12-27T08:31:00.920Z,5.53
2022-12-27T08:33:28.074Z,9.17
2022-12-27T08:35:57.151Z,9.70
2022-12-27T08:38:24.294Z,8.63
2022-12-27T08:40:51.430Z,5.40
2022-12-27T08:43:18.626Z,6.73
2022-12-27T08:45:45.805Z,6.77
2022-12-27T08:48:12.972Z,5.33
2022-12-27T08:50:40.166Z,3.23
2022-12-27T08:53:07.327Z,3.77
2022-12-27T08:55:34.648Z,2.87
2022-12-27T08:58:02.582Z,3.00
2022-12-27T09:00:29.861Z,11.50
2022-12-27T09:02:57.158Z,4.90
2022-12-27T09:05:24.734Z,5.80
2022-12-27T09:07:51.972Z,4.27
2022-12-27T09:10:19.382Z,4.10
2022-12-27T09:12:46.453Z,3.40
2022-12-27T09:15:13.730Z,2.97
2022-12-27T09:17:40.974Z,3.93
2022-12-27T09:20:08.462Z,3.53
2022-12-27T09:22:35.848Z,3.20
2022-12-27T09:25:03.007Z,2.73
2022-12-27T09:27:30.232Z,2.80
2022-12-27T09:29:57.406Z,3.50
2022-12-27T09:32:27.541Z,3.03
2022-12-27T09:34:55.052Z,2.50
2022-12-27T09:37:22.238Z,2.87
2022-12-27T09:39:49.367Z,3.00
2022-12-27T09:42:52.230Z,1.70
2022-12-27T09:45:16.184Z,2.70
2022-12-27T09:47:43.313Z,3.50
2022-12-27T09:50:17.699Z,3.33
2022-12-27T09:52:48.366Z,3.03
2022-12-27T09:55:19.859Z,3.00
2022-12-27T09:57:47.078Z,4.50
2022-12-27T10:00:15.097Z,3.70
2022-12-27T10:02:44.617Z,3.50
2022-12-27T10:05:21.162Z,2.13
2022-12-27T10:07:49.012Z,2.67
2022-12-27T10:10:22.244Z,2.50
2022-12-27T10:12:59.596Z,2.50
2022-12-27T10:15:32.798Z,4.00
2022-12-27T10:18:03.063Z,1.73
2022-12-27T10:20:48.345Z,2.30
2022-12-27T10:23:17.011Z,1.27
2022-12-27T10:25:44.133Z,2.33
2022-12-27T10:28:13.440Z,1.30
2022-12-27T10:30:40.550Z,2.33
2022-12-27T10:33:09.406Z,3.60
2022-12-27T10:35:36.502Z,1.50
2022-12-27T10:38:06.957Z,1.40
2022-12-27T10:40:38.556Z,1.13
2022-12-27T10:43:06.520Z,2.93
2022-12-27T10:45:33.747Z,1.20
2022-12-27T10:48:21.302Z,2.50
2022-12-27T10:50:50.383Z,2.07
2022-12-27T10:53:37.559Z,1.10
2022-12-27T10:56:15.552Z,0.70
2022-12-27T10:58:56.417Z,1.77
2022-12-27T11:01:27.115Z,1.23
2022-12-27T11:04:19.845Z,1.60
2022-12-27T11:06:48.818Z,2.53
2022-12-27T11:09:18.671Z,4.13
2022-12-27T11:11:45.799Z,1.20
2022-12-27T11:14:16.330Z,2.37
2022-12-27T11:16:43.534Z,2.00
2022-12-27T11:19:16.216Z,2.30
2022-12-27T11:21:43.365Z,2.17
2022-12-27T11:24:12.890Z,3.13
2022-12-27T11:26:53.743Z,1.60
2022-12-27T11:29:21.752Z,1.43
2022-12-27T11:31:48.943Z,1.37
2022-12-27T11:34:17.312Z,1.33
2022-12-27T11:36:45.227Z,1.30
2022-12-27T11:39:31.281Z,0.80
2022-12-27T11:41:58.466Z,1.67
2022-12-27T11:44:28.963Z,2.73
2022-12-27T11:46:59.482Z,2.40
2022-12-27T11:49:28.471Z,1.90
2022-12-27T11:52:08.455Z,1.57
2022-12-27T11:54:46.440Z,2.47
2022-12-27T11:57:32.126Z,1.40
2022-12-27T11:59:59.250Z,1.70
2022-12-27T12:02:26.625Z,1.70
2022-12-27T12:05:08.766Z,5.30
2022-12-27T12:07:47.877Z,6.50
2022-12-27T12:10:36.403Z,2.03
2022-12-27T12:13:15.835Z,1.10
2022-12-27T12:15:56.589Z,7.80
2022-12-27T12:18:27.869Z,10.03
2022-12-27T12:20:59.892Z,1.47
2022-12-27T12:23:39.241Z,1.00
2022-12-27T12:26:09.182Z,1.73
2022-12-27T12:28:57.641Z,3.93
2022-12-27T12:31:32.712Z,3.03
2022-12-27T12:34:03.867Z,4.87
2022-12-27T12:36:35.194Z,1.90
2022-12-27T12:39:03.509Z,2.37
2022-12-27T12:41:43.021Z,1.90
2022-12-27T12:44:41.688Z,1.50
2022-12-27T12:47:15.059Z,1.90
2022-12-27T12:49:42.117Z,1.60
2022-12-27T12:52:15.256Z,1.23
2022-12-27T12:54:45.222Z,3.57
2022-12-27T12:57:15.135Z,3.27
2022-12-27T13:00:00.423Z,1.97
2022-12-27T13:02:46.659Z,1.10
2022-12-27T13:05:32.721Z,0.80
2022-12-27T13:08:18.769Z,0.80
2022-12-27T13:10:58.252Z,1.73
2022-12-27T13:13:34.418Z,1.00
2022-12-27T13:16:04.401Z,3.43
2022-12-27T13:18:50.181Z,2.63
2022-12-27T13:21:20.144Z,1.10
2022-12-27T13:23:56.668Z,0.90
2022-12-27T13:26:32.946Z,2.50
2022-12-27T13:29:08.494Z,1.00
2022-12-27T13:31:41.912Z,4.43
2022-12-27T13:34:21.218Z,21.40
2022-12-27T13:37:03.502Z,6.07
2022-12-27T13:39:34.092Z,12.03
2022-12-27T13:42:07.121Z,3.30
2022-12-27T13:44:39.573Z,1.83
2022-12-27T13:47:06.656Z,2.60
2022-12-27T13:49:52.144Z,4.70
2022-12-27T13:52:25.653Z,1.40
2022-12-27T13:55:14.497Z,0.90
2022-12-27T13:58:03.085Z,1.40
2022-12-27T14:00:32.473Z,0.70
2022-12-27T14:03:08.764Z,2.40
2022-12-27T14:05:45.516Z,1.10
2022-12-27T14:08:21.802Z,1.27
2022-12-27T14:10:52.796Z,2.03
2022-12-27T14:13:39.895Z,2.13
2022-12-27T14:16:15.216Z,1.90
2022-12-27T14:19:07.073Z,4.47
2022-12-27T14:21:53.086Z,1.10
2022-12-27T14:24:40.226Z,2.10
2022-12-27T14:27:10.573Z,1.03
2022-12-27T14:30:00.674Z,1.33
2022-12-27T14:32:39.850Z,1.40
2022-12-27T14:35:25.594Z,1.90
2022-12-27T14:37:58.976Z,1.13
2022-12-27T14:40:35.109Z,1.40
2022-12-27T14:43:02.390Z,2.03
2022-12-27T14:45:35.413Z,2.60
2022-12-27T14:48:08.371Z,4.07
2022-12-27T14:50:54.181Z,2.67
2022-12-27T14:53:30.607Z,2.60
2022-12-27T14:56:03.643Z,2.10
2022-12-27T14:58:30.774Z,1.93
2022-12-27T15:01:05.848Z,1.60
2022-12-27T15:03:41.605Z,2.73
2022-12-27T15:06:12.173Z,0.97
2022-12-27T15:08:42.406Z,1.37
2022-12-27T15:11:15.386Z,3.10
2022-12-27T15:14:00.950Z,2.27
2022-12-27T15:16:31.153Z,3.07
2022-12-27T15:19:05.552Z,1.93
2022-12-27T15:21:42.311Z,1.90
2022-12-27T15:24:28.477Z,2.40
2022-12-27T15:26:58.646Z,3.07
2022-12-27T15:29:43.793Z,1.90
2022-12-27T15:32:16.346Z,1.60
2022-12-27T15:34:56.331Z,3.63
2022-12-27T15:37:42.196Z,3.43
2022-12-27T15:40:25.961Z,2.33
2022-12-27T15:42:54.849Z,3.47
2022-12-27T15:45:26.783Z,1.70
2022-12-27T15:48:09.472Z,3.33
2022-12-27T15:50:39.937Z,2.07
2022-12-27T15:53:13.287Z,2.17
2022-12-27T15:55:47.502Z,2.37
2022-12-27T15:58:15.274Z,3.23
2022-12-27T16:00:43.369Z,2.47
2022-12-27T16:03:33.816Z,2.40
2022-12-27T16:06:01.233Z,6.60
2022-12-27T16:08:29.225Z,6.97
2022-12-27T16:10:56.600Z,12.70
2022-12-27T16:13:41.490Z,7.60
2022-12-27T16:16:13.127Z,7.20
2022-12-27T16:18:44.475Z,8.70
2022-12-27T16:21:20.815Z,5.37
2022-12-27T16:23:47.989Z,5.83
2022-12-27T16:26:19.691Z,5.70
2022-12-27T16:28:53.938Z,4.50
2022-12-27T16:31:21.633Z,8.93
2022-12-27T16:33:48.868Z,4.53
2022-12-27T16:36:23.461Z,4.83
2022-12-27T16:38:54.473Z,6.93
2022-12-27T16:41:30.637Z,7.03
2022-12-27T16:44:00.676Z,7.70
2022-12-27T16:46:30.742Z,11.83
2022-12-27T16:49:23.338Z,8.73
2022-12-27T16:51:55.406Z,8.30
2022-12-27T16:54:31.684Z,7.57
2022-12-27T16:57:19.952Z,11.70
2022-12-27T17:00:00.893Z,14.17
2022-12-27T17:02:32.495Z,15.57
2022-12-27T17:05:01.863Z,13.10
2022-12-27T17:07:38.027Z,13.03
2022-12-27T17:10:23.936Z,17.07
2022-12-27T17:12:52.872Z,16.77
2022-12-27T17:15:20.076Z,13.17
2022-12-27T17:17:48.936Z,17.83
2022-12-27T17:20:17.214Z,18.07
2022-12-27T17:22:44.453Z,19.20
2022-12-27T17:25:16.403Z,17.93
2022-12-27T17:27:53.991Z,15.23
2022-12-27T17:30:47.595Z,17.00
2022-12-27T17:33:14.731Z,17.17
2022-12-27T17:35:48.945Z,17.67
2022-12-27T17:38:16.123Z,19.80
2022-12-27T17:40:53.421Z,21.20
2022-12-27T17:43:42.265Z,23.10
2022-12-27T17:46:18.883Z,29.07
2022-12-27T17:48:46.139Z,20.80
2022-12-27T17:51:14.251Z,19.40
2022-12-27T17:54:06.501Z,17.93
2022-12-27T17:57:01.533Z,19.73
2022-12-27T17:59:29.205Z,15.97
2022-12-27T18:01:58.028Z,17.67
2022-12-27T18:04:25.959Z,17.13
2022-12-27T18:06:56.823Z,18.23
2022-12-27T18:09:42.691Z,19.60
2022-12-27T18:12:22.910Z,15.17
2022-12-27T18:14:53.127Z,17.77
2022-12-27T18:17:28.450Z,14.87
2022-12-27T18:19:56.371Z,15.30
2022-12-27T18:22:23.590Z,16.17
2022-12-27T18:24:50.811Z,13.93
2022-12-27T18:27:19.225Z,13.47
2022-12-27T18:29:46.608Z,14.17
2022-12-27T18:32:14.396Z,15.43
2022-12-27T18:34:47.859Z,15.40
2022-12-27T18:37:17.866Z,16.93
2022-12-27T18:39:50.890Z,17.10
2022-12-27T18:42:19.410Z,16.47
2022-12-27T18:44:47.864Z,16.57
2022-12-27T18:47:21.650Z,22.37
2022-12-27T18:49:56.280Z,17.47
2022-12-27T18:52:27.291Z,16.00
2022-12-27T18:54:54.854Z,14.60
2022-12-27T18:57:27.490Z,13.13
2022-12-27T19:00:02.539Z,14.70
2022-12-27T19:02:32.425Z,11.43
2022-12-27T19:05:19.957Z,17.63
2022-12-27T19:07:50.452Z,13.23
2022-12-27T19:10:17.961Z,13.30
2022-12-27T19:12:45.210Z,12.93
2022-12-27T19:15:31.001Z,11.83
2022-12-27T19:17:59.515Z,11.30
2022-12-27T19:20:30.474Z,12.27
2022-12-27T19:22:57.977Z,11.00
2022-12-27T19:25:26.220Z,10.93
2022-12-27T19:28:16.418Z,12.63
2022-12-27T19:30:44.410Z,10.47
2022-12-27T19:33:14.587Z,13.73
2022-12-27T19:35:42.007Z,11.27
2022-12-27T19:38:12.843Z,11.83
2022-12-27T19:40:40.218Z,11.80
2022-12-27T19:43:07.369Z,12.13
2022-12-27T19:45:34.672Z,11.70
2022-12-27T19:48:01.831Z,11.80
2022-12-27T19:50:28.967Z,13.80
2022-12-27T19:52:56.222Z,11.23
2022-12-27T19:55:24.719Z,12.73
2022-12-27T19:57:52.113Z,14.80
2022-12-27T20:00:19.502Z,18.03
2022-12-27T20:02:46.812Z,13.17
2022-12-27T20:05:14.148Z,13.00
2022-12-27T20:07:41.326Z,15.80
2022-12-27T20:10:08.781Z,17.00
2022-12-27T20:12:36.009Z,21.60
2022-12-27T20:15:03.280Z,16.40
2022-12-27T20:17:32.486Z,18.30
2022-12-27T20:19:59.763Z,18.93
2022-12-27T20:22:26.908Z,13.67
2022-12-27T20:24:54.157Z,14.40
2022-12-27T20:27:23.937Z,15.80
2022-12-27T20:29:51.269Z,15.20
2022-12-27T20:32:18.830Z,13.00
2022-12-27T20:34:46.230Z,13.87
2022-12-27T20:37:18.573Z,15.77
2022-12-27T20:39:50.869Z,19.47
2022-12-27T20:42:18.062Z,14.43
2022-12-27T20:44:45.304Z,17.33
2022-12-27T20:47:12.461Z,15.20
2022-12-27T20:49:40.080Z,15.73
2022-12-27T20:52:07.197Z,17.57
2022-12-27T20:54:34.331Z,13.73
2022-12-27T20:57:01.661Z,14.03
2022-12-27T20:59:28.807Z,17.27
2022-12-27T21:01:57.338Z,14.03
2022-12-27T21:04:24.860Z,17.13
2022-12-27T21:06:51.985Z,15.70
2022-12-27T21:09:19.560Z,14.43
2022-12-27T21:11:46.930Z,16.90
2022-12-27T21:14:14.109Z,16.20
2022-12-27T21:16:41.270Z,15.37
2022-12-27T21:19:08.478Z,14.53
2022-12-27T21:21:36.212Z,15.03
2022-12-27T21:24:03.563Z,14.10
2022-12-27T21:26:31.590Z,13.43
2022-12-27T21:28:58.992Z,16.43
2022-12-27T21:31:26.285Z,17.33
2022-12-27T21:33:53.541Z,13.90
2022-12-27T21:36:21.428Z,20.40
2022-12-27T21:38:48.635Z,14.90
2022-12-27T21:41:15.775Z,17.33
2022-12-27T21:43:43.164Z,14.73
2022-12-27T21:46:12.050Z,14.53
2022-12-27T21:48:39.307Z,13.60
2022-12-27T21:51:24.458Z,15.00
2022-12-27T21:53:54.154Z,15.37
2022-12-27T21:56:21.398Z,15.30
2022-12-27T21:58:48.799Z,19.90
2022-12-27T22:01:23.108Z,30.73
2022-12-27T22:03:51.138Z,36.47
2022-12-27T22:06:19.306Z,30.53
2022-12-27T22:08:47.523Z,23.13
2022-12-27T22:11:14.727Z,28.80
2022-12-27T22:13:42.529Z,26.57
2022-12-27T22:16:12.722Z,27.03
2022-12-27T22:18:41.658Z,27.50
2022-12-27T22:21:09.050Z,50.93
2022-12-27T22:23:37.149Z,46.13
2022-12-27T22:26:04.408Z,43.30
2022-12-27T22:28:31.550Z,33.90
2022-12-27T22:30:58.875Z,40.70
2022-12-27T22:33:26.029Z,32.70
2022-12-27T22:35:53.206Z,27.93
2022-12-27T22:38:20.368Z,26.90
2022-12-27T22:40:47.532Z,24.30
2022-12-27T22:43:14.723Z,26.47
2022-12-27T22:45:42.530Z,23.43
2022-12-27T22:48:09.880Z,23.03
2022-12-27T22:50:38.107Z,27.37
2022-12-27T22:53:05.287Z,22.33
2022-12-27T22:55:32.389Z,24.53
2022-12-27T22:57:59.819Z,21.57
2022-12-27T23:00:26.984Z,25.30
2022-12-27T23:02:54.156Z,23.20
2022-12-27T23:05:21.260Z,24.37
2022-12-27T23:08:04.313Z,18.17
2022-12-27T23:10:33.427Z,19.00
2022-12-27T23:13:00.649Z,17.60
2022-12-27T23:15:27.840Z,19.63
2022-12-27T23:17:54.938Z,19.40
2022-12-27T23:20:22.084Z,17.70
2022-12-27T23:22:49.405Z,18.03
2022-12-27T23:25:16.526Z,19.73
2022-12-27T23:27:43.629Z,18.93
2022-12-27T23:30:11.280Z,19.77
2022-12-27T23:32:38.485Z,18.83
2022-12-27T23:35:05.814Z,17.63
2022-12-27T23:37:32.966Z,16.47
2022-12-27T23:40:00.151Z,19.30
2022-12-27T23:42:27.894Z,18.50
2022-12-27T23:44:55.005Z,15.40
2022-12-27T23:47:22.328Z,16.10
2022-12-27T23:49:49.526Z,17.30
2022-12-27T23:52:16.702Z,15.23
2022-12-27T23:54:43.827Z,13.83
2022-12-27T23:57:20.264Z,16.33
2022-12-27T23:59:49.590Z,16.17
